Terminal Aerodrome Forecast
Issued by NWS Charleston, WV

Current Version | Previous Version | Text Only | Print | Product List | Glossary Off
Versions: 1 2 3 4 5 6 7 8 9 10 11 12 13 14 15 16 17 18 19 20 21 22 23 24 25 26 27

000
FTUS41 KRLX 270905 AAA
TAFEKN
TAF AMD
KEKN 270905Z 2709/2806 19005KT P6SM VCSH OVC050
     FM271000 19005KT P6SM OVC025
     FM271500 22005KT P6SM BKN040
     FM280400 17002KT P6SM SHRA BKN050=

USA.gov is the U.S. government's official web portal to all federal, state and local government web resources and services.